sensor_id;sensor_type;location;lat;lon;timestamp;P1;durP1;ratioP1;P2;durP2;ratioP2
64550;SDS011;50945;44.472;-123.352;2022-10-16T00:01:17;13.30;;;10.30;;
64550;SDS011;50945;44.472;-123.352;2022-10-16T00:03:46;14.60;;;10.82;;
64550;SDS011;50945;44.472;-123.352;2022-10-16T00:06:14;17.20;;;10.90;;
64550;SDS011;50945;44.472;-123.352;2022-10-16T00:08:42;17.15;;;10.95;;
64550;SDS011;50945;44.472;-123.352;2022-10-16T00:11:09;16.13;;;10.88;;
64550;SDS011;50945;44.472;-123.352;2022-10-16T00:13:39;18.42;;;10.93;;
64550;SDS011;50945;44.472;-123.352;2022-10-16T00:16:07;20.15;;;10.75;;
64550;SDS011;50945;44.472;-123.352;2022-10-16T00:18:35;17.33;;;11.15;;
64550;SDS011;50945;44.472;-123.352;2022-10-16T00:21:12;18.70;;;12.00;;
64550;SDS011;50945;44.472;-123.352;2022-10-16T00:23:41;18.15;;;11.77;;
64550;SDS011;50945;44.472;-123.352;2022-10-16T00:26:09;19.98;;;11.00;;
64550;SDS011;50945;44.472;-123.352;2022-10-16T00:28:37;14.20;;;10.90;;
64550;SDS011;50945;44.472;-123.352;2022-10-16T00:31:04;22.85;;;11.13;;
64550;SDS011;50945;44.472;-123.352;2022-10-16T00:33:33;30.75;;;12.65;;
64550;SDS011;50945;44.472;-123.352;2022-10-16T00:36:01;26.85;;;12.70;;
64550;SDS011;50945;44.472;-123.352;2022-10-16T00:38:28;23.80;;;11.60;;
64550;SDS011;50945;44.472;-123.352;2022-10-16T00:40:54;22.15;;;11.68;;
64550;SDS011;50945;44.472;-123.352;2022-10-16T00:43:41;25.83;;;11.27;;
64550;SDS011;50945;44.472;-123.352;2022-10-16T00:49:19;23.80;;;11.63;;
64550;SDS011;50945;44.472;-123.352;2022-10-16T00:51:45;17.98;;;10.60;;
64550;SDS011;50945;44.472;-123.352;2022-10-16T00:54:14;21.45;;;12.02;;
64550;SDS011;50945;44.472;-123.352;2022-10-16T00:56:49;18.67;;;11.63;;
64550;SDS011;50945;44.472;-123.352;2022-10-16T00:59:26;26.83;;;12.20;;
64550;SDS011;50945;44.472;-123.352;2022-10-16T01:01:56;20.17;;;11.73;;
64550;SDS011;50945;44.472;-123.352;2022-10-16T01:04:24;23.52;;;11.88;;
64550;SDS011;50945;44.472;-123.352;2022-10-16T01:07:14;18.33;;;11.35;;
64550;SDS011;50945;44.472;-123.352;2022-10-16T01:20:45;21.58;;;12.10;;
64550;SDS011;50945;44.472;-123.352;2022-10-16T01:28:52;24.67;;;12.10;;
64550;SDS011;50945;44.472;-123.352;2022-10-16T01:31:20;29.13;;;12.40;;
64550;SDS011;50945;44.472;-123.352;2022-10-16T01:33:55;18.85;;;12.15;;
64550;SDS011;50945;44.472;-123.352;2022-10-16T01:36:41;21.25;;;12.00;;
64550;SDS011;50945;44.472;-123.352;2022-10-16T01:39:13;19.90;;;12.27;;
64550;SDS011;50945;44.472;-123.352;2022-10-16T01:41:46;16.73;;;11.88;;
64550;SDS011;50945;44.472;-123.352;2022-10-16T01:44:20;19.98;;;12.57;;
64550;SDS011;50945;44.472;-123.352;2022-10-16T01:46:51;19.55;;;11.68;;
64550;SDS011;50945;44.472;-123.352;2022-10-16T01:49:20;17.95;;;11.77;;
64550;SDS011;50945;44.472;-123.352;2022-10-16T01:51:51;19.20;;;12.00;;
64550;SDS011;50945;44.472;-123.352;2022-10-16T01:54:22;19.58;;;12.68;;
64550;SDS011;50945;44.472;-123.352;2022-10-16T01:56:53;17.98;;;11.48;;
64550;SDS011;50945;44.472;-123.352;2022-10-16T01:59:22;17.65;;;11.48;;
64550;SDS011;50945;44.472;-123.352;2022-10-16T02:01:55;19.23;;;12.27;;
64550;SDS011;50945;44.472;-123.352;2022-10-16T02:04:28;18.17;;;12.13;;
64550;SDS011;50945;44.472;-123.352;2022-10-16T02:06:58;18.63;;;12.18;;
64550;SDS011;50945;44.472;-123.352;2022-10-16T02:09:25;20.63;;;11.90;;
64550;SDS011;50945;44.472;-123.352;2022-10-16T02:11:55;17.33;;;11.95;;
64550;SDS011;50945;44.472;-123.352;2022-10-16T02:14:25;17.30;;;11.35;;
64550;SDS011;50945;44.472;-123.352;2022-10-16T02:16:52;18.30;;;11.90;;
64550;SDS011;50945;44.472;-123.352;2022-10-16T02:19:18;18.15;;;11.85;;
64550;SDS011;50945;44.472;-123.352;2022-10-16T02:21:51;18.10;;;11.63;;
64550;SDS011;50945;44.472;-123.352;2022-10-16T02:24:38;21.85;;;11.45;;
64550;SDS011;50945;44.472;-123.352;2022-10-16T02:27:32;17.58;;;11.40;;
64550;SDS011;50945;44.472;-123.352;2022-10-16T02:30:25;14.70;;;11.60;;
64550;SDS011;50945;44.472;-123.352;2022-10-16T02:32:59;18.23;;;11.20;;
64550;SDS011;50945;44.472;-123.352;2022-10-16T02:35:28;18.98;;;11.95;;
64550;SDS011;50945;44.472;-123.352;2022-10-16T02:37:56;15.82;;;10.43;;
64550;SDS011;50945;44.472;-123.352;2022-10-16T02:40:23;16.58;;;10.32;;
64550;SDS011;50945;44.472;-123.352;2022-10-16T02:42:52;17.50;;;10.90;;
64550;SDS011;50945;44.472;-123.352;2022-10-16T02:45:19;17.65;;;10.48;;
64550;SDS011;50945;44.472;-123.352;2022-10-16T02:47:48;14.68;;;10.57;;
64550;SDS011;50945;44.472;-123.352;2022-10-16T02:50:15;16.42;;;10.20;;
64550;SDS011;50945;44.472;-123.352;2022-10-16T02:52:41;14.05;;;10.50;;
64550;SDS011;50945;44.472;-123.352;2022-10-16T02:55:08;13.45;;;10.18;;
64550;SDS011;50945;44.472;-123.352;2022-10-16T02:57:34;16.40;;;11.05;;
64550;SDS011;50945;44.472;-123.352;2022-10-16T03:00:03;17.90;;;11.30;;
64550;SDS011;50945;44.472;-123.352;2022-10-16T03:02:30;17.83;;;11.10;;
64550;SDS011;50945;44.472;-123.352;2022-10-16T03:04:56;17.60;;;10.93;;
64550;SDS011;50945;44.472;-123.352;2022-10-16T03:07:23;15.68;;;10.95;;
64550;SDS011;50945;44.472;-123.352;2022-10-16T03:09:49;13.70;;;10.60;;
64550;SDS011;50945;44.472;-123.352;2022-10-16T03:12:15;20.25;;;10.98;;
64550;SDS011;50945;44.472;-123.352;2022-10-16T03:14:42;15.60;;;10.52;;
64550;SDS011;50945;44.472;-123.352;2022-10-16T03:19:34;15.38;;;9.82;;
64550;SDS011;50945;44.472;-123.352;2022-10-16T03:22:01;17.27;;;10.23;;
64550;SDS011;50945;44.472;-123.352;2022-10-16T03:24:27;15.07;;;10.32;;
64550;SDS011;50945;44.472;-123.352;2022-10-16T03:26:54;14.65;;;9.25;;
64550;SDS011;50945;44.472;-123.352;2022-10-16T03:29:20;16.90;;;10.52;;
64550;SDS011;50945;44.472;-123.352;2022-10-16T03:31:46;15.98;;;10.73;;
64550;SDS011;50945;44.472;-123.352;2022-10-16T03:34:14;18.52;;;9.80;;
64550;SDS011;50945;44.472;-123.352;2022-10-16T03:36:41;17.75;;;10.18;;
64550;SDS011;50945;44.472;-123.352;2022-10-16T03:39:07;16.70;;;10.45;;
64550;SDS011;50945;44.472;-123.352;2022-10-16T03:41:34;18.00;;;9.88;;
64550;SDS011;50945;44.472;-123.352;2022-10-16T03:44:03;17.73;;;10.02;;
64550;SDS011;50945;44.472;-123.352;2022-10-16T03:46:29;16.27;;;10.02;;
64550;SDS011;50945;44.472;-123.352;2022-10-16T03:48:56;14.02;;;10.63;;
64550;SDS011;50945;44.472;-123.352;2022-10-16T03:53:48;18.88;;;10.35;;
64550;SDS011;50945;44.472;-123.352;2022-10-16T03:56:14;19.98;;;11.40;;
64550;SDS011;50945;44.472;-123.352;2022-10-16T04:01:06;16.67;;;9.73;;
64550;SDS011;50945;44.472;-123.352;2022-10-16T04:03:33;17.25;;;10.00;;
64550;SDS011;50945;44.472;-123.352;2022-10-16T04:06:02;13.63;;;9.18;;
64550;SDS011;50945;44.472;-123.352;2022-10-16T04:08:28;15.00;;;9.82;;
64550;SDS011;50945;44.472;-123.352;2022-10-16T04:13:21;14.63;;;9.57;;
64550;SDS011;50945;44.472;-123.352;2022-10-16T04:15:47;14.25;;;9.27;;
64550;SDS011;50945;44.472;-123.352;2022-10-16T04:20:40;13.13;;;8.45;;
64550;SDS011;50945;44.472;-123.352;2022-10-16T04:23:06;15.38;;;9.10;;
64550;SDS011;50945;44.472;-123.352;2022-10-16T04:25:33;18.33;;;10.10;;
64550;SDS011;50945;44.472;-123.352;2022-10-16T04:27:59;13.40;;;9.43;;
64550;SDS011;50945;44.472;-123.352;2022-10-16T04:30:26;16.60;;;10.02;;
64550;SDS011;50945;44.472;-123.352;2022-10-16T04:35:19;17.73;;;9.20;;
64550;SDS011;50945;44.472;-123.352;2022-10-16T04:37:46;18.20;;;10.00;;
64550;SDS011;50945;44.472;-123.352;2022-10-16T04:42:39;15.38;;;9.15;;
64550;SDS011;50945;44.472;-123.352;2022-10-16T04:45:06;14.63;;;9.88;;
64550;SDS011;50945;44.472;-123.352;2022-10-16T04:47:33;14.10;;;10.13;;
64550;SDS011;50945;44.472;-123.352;2022-10-16T04:50:00;13.80;;;9.18;;
64550;SDS011;50945;44.472;-123.352;2022-10-16T04:52:28;18.17;;;9.57;;
64550;SDS011;50945;44.472;-123.352;2022-10-16T04:54:54;15.77;;;10.02;;
64550;SDS011;50945;44.472;-123.352;2022-10-16T04:57:25;15.23;;;9.13;;
64550;SDS011;50945;44.472;-123.352;2022-10-16T04:59:52;17.38;;;9.93;;
64550;SDS011;50945;44.472;-123.352;2022-10-16T05:02:18;14.73;;;9.60;;
64550;SDS011;50945;44.472;-123.352;2022-10-16T05:07:11;15.85;;;8.93;;
64550;SDS011;50945;44.472;-123.352;2022-10-16T05:09:37;14.07;;;8.98;;
64550;SDS011;50945;44.472;-123.352;2022-10-16T05:12:04;16.63;;;9.48;;
64550;SDS011;50945;44.472;-123.352;2022-10-16T05:14:30;17.65;;;9.43;;
64550;SDS011;50945;44.472;-123.352;2022-10-16T05:16:57;15.10;;;9.18;;
64550;SDS011;50945;44.472;-123.352;2022-10-16T05:19:24;14.65;;;9.40;;
64550;SDS011;50945;44.472;-123.352;2022-10-16T05:24:17;13.80;;;9.13;;
64550;SDS011;50945;44.472;-123.352;2022-10-16T05:26:43;15.20;;;9.10;;
64550;SDS011;50945;44.472;-123.352;2022-10-16T05:29:10;17.15;;;9.85;;
64550;SDS011;50945;44.472;-123.352;2022-10-16T05:31:36;15.05;;;8.95;;
64550;SDS011;50945;44.472;-123.352;2022-10-16T05:34:03;16.00;;;9.07;;
64550;SDS011;50945;44.472;-123.352;2022-10-16T05:38:55;15.25;;;8.85;;
64550;SDS011;50945;44.472;-123.352;2022-10-16T05:41:21;11.65;;;7.95;;
64550;SDS011;50945;44.472;-123.352;2022-10-16T05:43:50;15.95;;;9.90;;
64550;SDS011;50945;44.472;-123.352;2022-10-16T05:46:17;17.88;;;10.07;;
64550;SDS011;50945;44.472;-123.352;2022-10-16T05:48:43;12.65;;;8.82;;
64550;SDS011;50945;44.472;-123.352;2022-10-16T05:51:10;13.48;;;8.32;;
64550;SDS011;50945;44.472;-123.352;2022-10-16T05:53:38;21.27;;;9.38;;
64550;SDS011;50945;44.472;-123.352;2022-10-16T05:56:06;13.27;;;8.27;;
64550;SDS011;50945;44.472;-123.352;2022-10-16T05:58:35;13.93;;;8.90;;
64550;SDS011;50945;44.472;-123.352;2022-10-16T06:01:04;15.32;;;8.73;;
64550;SDS011;50945;44.472;-123.352;2022-10-16T06:03:33;14.35;;;8.85;;
64550;SDS011;50945;44.472;-123.352;2022-10-16T06:06:10;15.80;;;9.32;;
64550;SDS011;50945;44.472;-123.352;2022-10-16T06:08:39;15.85;;;8.45;;
64550;SDS011;50945;44.472;-123.352;2022-10-16T06:11:07;12.15;;;8.25;;
64550;SDS011;50945;44.472;-123.352;2022-10-16T06:13:36;14.00;;;9.07;;
64550;SDS011;50945;44.472;-123.352;2022-10-16T06:16:04;14.13;;;8.15;;
64550;SDS011;50945;44.472;-123.352;2022-10-16T06:18:31;22.08;;;10.10;;
64550;SDS011;50945;44.472;-123.352;2022-10-16T06:20:57;14.10;;;8.45;;
64550;SDS011;50945;44.472;-123.352;2022-10-16T06:23:24;14.88;;;7.93;;
64550;SDS011;50945;44.472;-123.352;2022-10-16T06:25:53;17.42;;;9.82;;
64550;SDS011;50945;44.472;-123.352;2022-10-16T06:28:20;13.48;;;9.25;;
64550;SDS011;50945;44.472;-123.352;2022-10-16T06:33:13;15.38;;;8.88;;
64550;SDS011;50945;44.472;-123.352;2022-10-16T06:35:39;14.57;;;8.57;;
64550;SDS011;50945;44.472;-123.352;2022-10-16T06:38:06;15.70;;;8.15;;
64550;SDS011;50945;44.472;-123.352;2022-10-16T06:42:58;13.40;;;8.27;;
64550;SDS011;50945;44.472;-123.352;2022-10-16T06:45:25;14.57;;;8.45;;
64550;SDS011;50945;44.472;-123.352;2022-10-16T06:47:51;15.40;;;8.35;;
64550;SDS011;50945;44.472;-123.352;2022-10-16T06:52:44;13.68;;;8.02;;
64550;SDS011;50945;44.472;-123.352;2022-10-16T06:55:11;15.00;;;8.18;;
64550;SDS011;50945;44.472;-123.352;2022-10-16T07:00:04;13.30;;;9.00;;
64550;SDS011;50945;44.472;-123.352;2022-10-16T07:02:31;14.30;;;8.32;;
64550;SDS011;50945;44.472;-123.352;2022-10-16T07:04:57;16.48;;;8.70;;
64550;SDS011;50945;44.472;-123.352;2022-10-16T07:07:24;13.10;;;8.27;;
64550;SDS011;50945;44.472;-123.352;2022-10-16T07:09:52;11.00;;;8.20;;
64550;SDS011;50945;44.472;-123.352;2022-10-16T07:12:18;12.98;;;8.00;;
64550;SDS011;50945;44.472;-123.352;2022-10-16T07:14:44;13.52;;;8.30;;
64550;SDS011;50945;44.472;-123.352;2022-10-16T07:17:10;15.43;;;8.48;;
64550;SDS011;50945;44.472;-123.352;2022-10-16T07:19:37;14.85;;;7.75;;
64550;SDS011;50945;44.472;-123.352;2022-10-16T07:24:30;14.23;;;8.02;;
64550;SDS011;50945;44.472;-123.352;2022-10-16T07:26:56;12.98;;;8.82;;
64550;SDS011;50945;44.472;-123.352;2022-10-16T07:29:22;12.43;;;7.78;;
64550;SDS011;50945;44.472;-123.352;2022-10-16T07:31:48;11.95;;;8.35;;
64550;SDS011;50945;44.472;-123.352;2022-10-16T07:36:43;15.48;;;8.27;;
64550;SDS011;50945;44.472;-123.352;2022-10-16T07:39:09;14.10;;;7.70;;
64550;SDS011;50945;44.472;-123.352;2022-10-16T07:41:35;16.25;;;8.20;;
64550;SDS011;50945;44.472;-123.352;2022-10-16T07:44:02;14.65;;;8.40;;
64550;SDS011;50945;44.472;-123.352;2022-10-16T07:46:29;13.02;;;8.10;;
64550;SDS011;50945;44.472;-123.352;2022-10-16T07:48:56;14.43;;;8.02;;
64550;SDS011;50945;44.472;-123.352;2022-10-16T07:51:23;13.98;;;8.38;;
64550;SDS011;50945;44.472;-123.352;2022-10-16T07:53:50;10.68;;;7.45;;
64550;SDS011;50945;44.472;-123.352;2022-10-16T07:58:43;12.20;;;8.32;;
64550;SDS011;50945;44.472;-123.352;2022-10-16T08:01:11;14.93;;;7.53;;
64550;SDS011;50945;44.472;-123.352;2022-10-16T08:03:42;13.23;;;8.30;;
64550;SDS011;50945;44.472;-123.352;2022-10-16T08:06:17;12.10;;;8.15;;
64550;SDS011;50945;44.472;-123.352;2022-10-16T08:08:44;13.70;;;8.00;;
64550;SDS011;50945;44.472;-123.352;2022-10-16T08:11:10;15.77;;;8.50;;
64550;SDS011;50945;44.472;-123.352;2022-10-16T08:13:37;12.30;;;8.52;;
64550;SDS011;50945;44.472;-123.352;2022-10-16T08:16:03;11.55;;;7.90;;
64550;SDS011;50945;44.472;-123.352;2022-10-16T08:18:33;14.80;;;8.52;;
64550;SDS011;50945;44.472;-123.352;2022-10-16T08:21:01;16.48;;;8.85;;
64550;SDS011;50945;44.472;-123.352;2022-10-16T08:23:28;14.55;;;8.15;;
64550;SDS011;50945;44.472;-123.352;2022-10-16T08:28:20;12.48;;;7.63;;
64550;SDS011;50945;44.472;-123.352;2022-10-16T08:30:47;18.17;;;8.32;;
64550;SDS011;50945;44.472;-123.352;2022-10-16T08:33:14;13.50;;;7.18;;
64550;SDS011;50945;44.472;-123.352;2022-10-16T08:35:40;13.18;;;7.88;;
64550;SDS011;50945;44.472;-123.352;2022-10-16T08:38:06;12.93;;;8.48;;
64550;SDS011;50945;44.472;-123.352;2022-10-16T08:40:33;14.75;;;7.82;;
64550;SDS011;50945;44.472;-123.352;2022-10-16T08:51:20;11.75;;;6.32;;
64550;SDS011;50945;44.472;-123.352;2022-10-16T08:53:54;10.43;;;5.80;;
64550;SDS011;50945;44.472;-123.352;2022-10-16T08:56:23;13.23;;;6.50;;
64550;SDS011;50945;44.472;-123.352;2022-10-16T08:58:50;10.88;;;5.75;;
64550;SDS011;50945;44.472;-123.352;2022-10-16T09:01:18;9.90;;;7.03;;
64550;SDS011;50945;44.472;-123.352;2022-10-16T09:03:58;15.07;;;7.55;;
64550;SDS011;50945;44.472;-123.352;2022-10-16T09:19:56;16.50;;;9.43;;
64550;SDS011;50945;44.472;-123.352;2022-10-16T09:22:39;14.52;;;7.80;;
64550;SDS011;50945;44.472;-123.352;2022-10-16T09:25:13;12.90;;;8.02;;
64550;SDS011;50945;44.472;-123.352;2022-10-16T09:27:45;12.30;;;8.00;;
64550;SDS011;50945;44.472;-123.352;2022-10-16T09:30:15;13.63;;;7.30;;
64550;SDS011;50945;44.472;-123.352;2022-10-16T09:32:44;13.45;;;7.55;;
64550;SDS011;50945;44.472;-123.352;2022-10-16T09:35:14;14.77;;;8.40;;
64550;SDS011;50945;44.472;-123.352;2022-10-16T09:38:02;13.35;;;8.25;;
64550;SDS011;50945;44.472;-123.352;2022-10-16T09:40:30;13.48;;;7.15;;
64550;SDS011;50945;44.472;-123.352;2022-10-16T09:46:06;22.55;;;8.32;;
64550;SDS011;50945;44.472;-123.352;2022-10-16T09:48:36;15.45;;;8.18;;
64550;SDS011;50945;44.472;-123.352;2022-10-16T09:51:13;13.65;;;7.57;;
64550;SDS011;50945;44.472;-123.352;2022-10-16T09:53:53;16.23;;;7.68;;
64550;SDS011;50945;44.472;-123.352;2022-10-16T09:56:22;14.77;;;7.60;;
64550;SDS011;50945;44.472;-123.352;2022-10-16T09:58:54;13.10;;;6.53;;
64550;SDS011;50945;44.472;-123.352;2022-10-16T10:01:26;9.05;;;6.28;;
64550;SDS011;50945;44.472;-123.352;2022-10-16T10:04:03;13.27;;;5.90;;
64550;SDS011;50945;44.472;-123.352;2022-10-16T10:06:33;9.50;;;5.72;;
64550;SDS011;50945;44.472;-123.352;2022-10-16T10:14:24;8.95;;;6.28;;
64550;SDS011;50945;44.472;-123.352;2022-10-16T10:30:41;14.57;;;7.20;;
64550;SDS011;50945;44.472;-123.352;2022-10-16T10:39:00;10.60;;;6.05;;
64550;SDS011;50945;44.472;-123.352;2022-10-16T10:45:04;17.17;;;7.72;;
64550;SDS011;50945;44.472;-123.352;2022-10-16T11:01:18;13.68;;;8.38;;
64550;SDS011;50945;44.472;-123.352;2022-10-16T11:06:46;13.20;;;7.63;;
64550;SDS011;50945;44.472;-123.352;2022-10-16T11:09:25;16.40;;;8.05;;
64550;SDS011;50945;44.472;-123.352;2022-10-16T11:12:00;17.80;;;8.82;;
64550;SDS011;50945;44.472;-123.352;2022-10-16T11:14:40;14.82;;;8.75;;
64550;SDS011;50945;44.472;-123.352;2022-10-16T11:17:31;11.00;;;6.60;;
64550;SDS011;50945;44.472;-123.352;2022-10-16T11:20:24;12.75;;;7.50;;
64550;SDS011;50945;44.472;-123.352;2022-10-16T11:22:56;16.98;;;9.07;;
64550;SDS011;50945;44.472;-123.352;2022-10-16T11:25:29;15.13;;;9.38;;
64550;SDS011;50945;44.472;-123.352;2022-10-16T11:28:43;18.58;;;8.88;;
64550;SDS011;50945;44.472;-123.352;2022-10-16T11:30:53;15.70;;;9.20;;
64550;SDS011;50945;44.472;-123.352;2022-10-16T11:33:51;15.98;;;8.98;;
64550;SDS011;50945;44.472;-123.352;2022-10-16T11:36:28;15.60;;;8.60;;
64550;SDS011;50945;44.472;-123.352;2022-10-16T11:41:49;12.70;;;8.77;;
64550;SDS011;50945;44.472;-123.352;2022-10-16T11:49:45;15.82;;;9.10;;
64550;SDS011;50945;44.472;-123.352;2022-10-16T11:52:33;15.70;;;9.18;;
64550;SDS011;50945;44.472;-123.352;2022-10-16T11:57:35;19.58;;;10.15;;
64550;SDS011;50945;44.472;-123.352;2022-10-16T12:00:21;16.95;;;9.50;;
64550;SDS011;50945;44.472;-123.352;2022-10-16T12:08:11;21.50;;;10.05;;
64550;SDS011;50945;44.472;-123.352;2022-10-16T12:10:40;15.52;;;9.07;;
64550;SDS011;50945;44.472;-123.352;2022-10-16T12:16:19;15.38;;;8.85;;
64550;SDS011;50945;44.472;-123.352;2022-10-16T12:18:47;16.63;;;9.32;;
64550;SDS011;50945;44.472;-123.352;2022-10-16T12:21:15;20.60;;;10.38;;
64550;SDS011;50945;44.472;-123.352;2022-10-16T12:26:24;19.20;;;9.52;;
64550;SDS011;50945;44.472;-123.352;2022-10-16T12:28:51;15.90;;;9.02;;
64550;SDS011;50945;44.472;-123.352;2022-10-16T12:31:18;16.95;;;9.65;;
64550;SDS011;50945;44.472;-123.352;2022-10-16T12:38:55;16.63;;;10.13;;
64550;SDS011;50945;44.472;-123.352;2022-10-16T12:41:35;17.58;;;10.07;;
64550;SDS011;50945;44.472;-123.352;2022-10-16T12:44:05;19.17;;;9.60;;
64550;SDS011;50945;44.472;-123.352;2022-10-16T12:46:48;26.27;;;9.20;;
64550;SDS011;50945;44.472;-123.352;2022-10-16T12:49:29;19.17;;;9.88;;
64550;SDS011;50945;44.472;-123.352;2022-10-16T12:51:58;18.70;;;9.25;;
64550;SDS011;50945;44.472;-123.352;2022-10-16T12:54:27;17.63;;;9.48;;
64550;SDS011;50945;44.472;-123.352;2022-10-16T12:57:08;15.82;;;9.27;;
64550;SDS011;50945;44.472;-123.352;2022-10-16T13:02:45;16.58;;;9.40;;
64550;SDS011;50945;44.472;-123.352;2022-10-16T13:05:27;17.30;;;9.27;;
64550;SDS011;50945;44.472;-123.352;2022-10-16T13:18:44;14.40;;;8.02;;
64550;SDS011;50945;44.472;-123.352;2022-10-16T13:29:10;19.88;;;9.43;;
64550;SDS011;50945;44.472;-123.352;2022-10-16T13:31:39;13.32;;;8.02;;
64550;SDS011;50945;44.472;-123.352;2022-10-16T13:34:11;15.30;;;8.18;;
64550;SDS011;50945;44.472;-123.352;2022-10-16T13:36:43;14.70;;;8.82;;
64550;SDS011;50945;44.472;-123.352;2022-10-16T13:39:29;15.68;;;8.23;;
64550;SDS011;50945;44.472;-123.352;2022-10-16T13:42:06;16.35;;;8.63;;
64550;SDS011;50945;44.472;-123.352;2022-10-16T13:47:14;15.68;;;9.02;;
64550;SDS011;50945;44.472;-123.352;2022-10-16T13:49:43;14.27;;;8.18;;
64550;SDS011;50945;44.472;-123.352;2022-10-16T13:52:19;15.43;;;8.80;;
64550;SDS011;50945;44.472;-123.352;2022-10-16T13:54:47;33.05;;;9.75;;
64550;SDS011;50945;44.472;-123.352;2022-10-16T13:57:14;15.45;;;8.00;;
64550;SDS011;50945;44.472;-123.352;2022-10-16T13:59:42;16.27;;;8.20;;
64550;SDS011;50945;44.472;-123.352;2022-10-16T14:02:51;22.17;;;8.27;;
64550;SDS011;50945;44.472;-123.352;2022-10-16T14:05:03;15.38;;;8.23;;
64550;SDS011;50945;44.472;-123.352;2022-10-16T14:07:35;16.40;;;8.38;;
64550;SDS011;50945;44.472;-123.352;2022-10-16T14:12:30;17.90;;;8.82;;
64550;SDS011;50945;44.472;-123.352;2022-10-16T14:14:57;14.82;;;8.43;;
64550;SDS011;50945;44.472;-123.352;2022-10-16T14:17:25;15.95;;;8.25;;
64550;SDS011;50945;44.472;-123.352;2022-10-16T14:19:57;17.00;;;8.18;;
64550;SDS011;50945;44.472;-123.352;2022-10-16T14:24:59;13.52;;;7.15;;
64550;SDS011;50945;44.472;-123.352;2022-10-16T14:27:33;12.63;;;6.80;;
64550;SDS011;50945;44.472;-123.352;2022-10-16T14:30:17;10.95;;;6.68;;
64550;SDS011;50945;44.472;-123.352;2022-10-16T14:32:56;12.10;;;7.28;;
64550;SDS011;50945;44.472;-123.352;2022-10-16T14:35:31;12.30;;;6.90;;
64550;SDS011;50945;44.472;-123.352;2022-10-16T14:38:03;74.93;;;13.68;;
64550;SDS011;50945;44.472;-123.352;2022-10-16T14:40:35;77.40;;;12.27;;
64550;SDS011;50945;44.472;-123.352;2022-10-16T14:43:03;54.50;;;11.93;;
64550;SDS011;50945;44.472;-123.352;2022-10-16T14:45:31;148.02;;;18.75;;
64550;SDS011;50945;44.472;-123.352;2022-10-16T14:48:05;209.90;;;23.70;;
64550;SDS011;50945;44.472;-123.352;2022-10-16T14:50:42;202.25;;;23.15;;
64550;SDS011;50945;44.472;-123.352;2022-10-16T14:53:12;85.20;;;13.23;;
64550;SDS011;50945;44.472;-123.352;2022-10-16T14:55:39;72.53;;;11.82;;
64550;SDS011;50945;44.472;-123.352;2022-10-16T14:58:25;58.13;;;9.88;;
64550;SDS011;50945;44.472;-123.352;2022-10-16T15:00:51;211.82;;;22.23;;
64550;SDS011;50945;44.472;-123.352;2022-10-16T15:03:18;281.55;;;28.05;;
64550;SDS011;50945;44.472;-123.352;2022-10-16T15:05:44;233.15;;;24.05;;
64550;SDS011;50945;44.472;-123.352;2022-10-16T15:08:10;55.08;;;10.20;;
64550;SDS011;50945;44.472;-123.352;2022-10-16T15:10:41;40.40;;;8.75;;
64550;SDS011;50945;44.472;-123.352;2022-10-16T15:13:12;60.65;;;10.07;;
64550;SDS011;50945;44.472;-123.352;2022-10-16T15:15:42;39.22;;;8.75;;
64550;SDS011;50945;44.472;-123.352;2022-10-16T15:18:10;40.13;;;8.90;;
64550;SDS011;50945;44.472;-123.352;2022-10-16T15:20:39;41.88;;;10.52;;
64550;SDS011;50945;44.472;-123.352;2022-10-16T15:23:16;38.47;;;9.65;;
64550;SDS011;50945;44.472;-123.352;2022-10-16T15:28:17;23.92;;;7.78;;
64550;SDS011;50945;44.472;-123.352;2022-10-16T15:30:45;44.17;;;9.65;;
64550;SDS011;50945;44.472;-123.352;2022-10-16T15:33:13;120.85;;;15.70;;
64550;SDS011;50945;44.472;-123.352;2022-10-16T15:35:41;122.53;;;17.73;;
64550;SDS011;50945;44.472;-123.352;2022-10-16T15:38:11;176.13;;;20.40;;
64550;SDS011;50945;44.472;-123.352;2022-10-16T15:40:39;246.98;;;27.55;;
64550;SDS011;50945;44.472;-123.352;2022-10-16T15:43:05;220.15;;;26.38;;
64550;SDS011;50945;44.472;-123.352;2022-10-16T15:45:32;243.60;;;25.52;;
64550;SDS011;50945;44.472;-123.352;2022-10-16T15:47:58;184.65;;;21.88;;
64550;SDS011;50945;44.472;-123.352;2022-10-16T15:50:25;183.20;;;20.73;;
64550;SDS011;50945;44.472;-123.352;2022-10-16T15:52:52;251.95;;;29.75;;
64550;SDS011;50945;44.472;-123.352;2022-10-16T15:55:18;291.55;;;28.08;;
64550;SDS011;50945;44.472;-123.352;2022-10-16T15:57:45;196.50;;;21.75;;
64550;SDS011;50945;44.472;-123.352;2022-10-16T16:00:13;123.13;;;18.35;;
64550;SDS011;50945;44.472;-123.352;2022-10-16T16:02:41;310.13;;;37.00;;
64550;SDS011;50945;44.472;-123.352;2022-10-16T16:05:09;164.10;;;21.75;;
64550;SDS011;50945;44.472;-123.352;2022-10-16T16:07:37;37.10;;;9.70;;
64550;SDS011;50945;44.472;-123.352;2022-10-16T16:10:06;69.53;;;10.90;;
64550;SDS011;50945;44.472;-123.352;2022-10-16T16:12:34;100.28;;;12.73;;
64550;SDS011;50945;44.472;-123.352;2022-10-16T16:15:00;104.03;;;15.23;;
64550;SDS011;50945;44.472;-123.352;2022-10-16T16:17:27;47.17;;;9.95;;
64550;SDS011;50945;44.472;-123.352;2022-10-16T16:19:53;31.80;;;8.65;;
64550;SDS011;50945;44.472;-123.352;2022-10-16T16:22:19;29.90;;;8.85;;
64550;SDS011;50945;44.472;-123.352;2022-10-16T16:24:46;49.45;;;9.73;;
64550;SDS011;50945;44.472;-123.352;2022-10-16T16:27:12;28.08;;;8.68;;
64550;SDS011;50945;44.472;-123.352;2022-10-16T16:29:39;31.20;;;9.13;;
64550;SDS011;50945;44.472;-123.352;2022-10-16T16:32:06;21.20;;;8.10;;
64550;SDS011;50945;44.472;-123.352;2022-10-16T16:34:32;14.75;;;7.80;;
64550;SDS011;50945;44.472;-123.352;2022-10-16T16:36:59;16.20;;;7.40;;
64550;SDS011;50945;44.472;-123.352;2022-10-16T16:39:26;17.95;;;8.23;;
64550;SDS011;50945;44.472;-123.352;2022-10-16T16:41:52;17.08;;;8.07;;
64550;SDS011;50945;44.472;-123.352;2022-10-16T16:44:20;17.42;;;7.70;;
64550;SDS011;50945;44.472;-123.352;2022-10-16T16:46:46;21.15;;;7.82;;
64550;SDS011;50945;44.472;-123.352;2022-10-16T16:49:13;12.70;;;7.03;;
64550;SDS011;50945;44.472;-123.352;2022-10-16T16:51:40;20.48;;;6.80;;
64550;SDS011;50945;44.472;-123.352;2022-10-16T16:54:07;16.67;;;6.97;;
64550;SDS011;50945;44.472;-123.352;2022-10-16T16:56:35;10.65;;;6.70;;
64550;SDS011;50945;44.472;-123.352;2022-10-16T17:03:55;11.63;;;6.15;;
64550;SDS011;50945;44.472;-123.352;2022-10-16T17:06:23;9.05;;;4.43;;
64550;SDS011;50945;44.472;-123.352;2022-10-16T17:08:52;8.43;;;4.60;;
64550;SDS011;50945;44.472;-123.352;2022-10-16T17:11:20;8.38;;;5.68;;
64550;SDS011;50945;44.472;-123.352;2022-10-16T17:13:48;10.32;;;4.60;;
64550;SDS011;50945;44.472;-123.352;2022-10-16T17:16:17;7.40;;;4.70;;
64550;SDS011;50945;44.472;-123.352;2022-10-16T17:18:44;7.25;;;4.72;;
64550;SDS011;50945;44.472;-123.352;2022-10-16T17:21:10;7.32;;;4.70;;
64550;SDS011;50945;44.472;-123.352;2022-10-16T17:23:37;7.45;;;4.47;;